createdAt,value
2023-03-28T00:01:13.387Z,68.89
2023-03-28T00:03:42.370Z,69.04
2023-03-28T00:06:13.690Z,68.67
2023-03-28T00:08:42.354Z,69.67
2023-03-28T00:11:18.649Z,71.01
2023-03-28T00:13:50.191Z,71.93
2023-03-28T00:16:18.391Z,72.70
2023-03-28T00:18:46.677Z,72.55
2023-03-28T00:21:25.609Z,73.12
2023-03-28T00:23:57.051Z,72.98
2023-03-28T00:26:26.819Z,72.17
2023-03-28T00:28:57.863Z,72.57
2023-03-28T00:31:27.338Z,71.97
2023-03-28T00:33:56.609Z,72.20
2023-03-28T00:36:29.274Z,71.90
2023-03-28T00:38:58.936Z,70.47
2023-03-28T00:41:31.283Z,70.46
2023-03-28T00:44:02.280Z,71.14
2023-03-28T00:46:37.145Z,70.61
2023-03-28T00:49:12.688Z,70.29
2023-03-28T00:51:47.045Z,70.53
2023-03-28T00:54:21.056Z,69.96
2023-03-28T00:56:55.642Z,70.34
2023-03-28T00:59:31.088Z,69.73
2023-03-28T01:02:00.007Z,69.45
2023-03-28T01:04:37.796Z,70.29
2023-03-28T01:07:07.745Z,69.96
2023-03-28T01:09:37.753Z,69.94
2023-03-28T01:12:07.145Z,70.47
2023-03-28T01:14:40.021Z,70.11
2023-03-28T01:17:08.781Z,69.78
2023-03-28T01:19:59.649Z,69.66
2023-03-28T01:23:16.386Z,69.64
2023-03-28T01:26:33.203Z,69.59
2023-03-28T01:30:00.879Z,70.13
2023-03-28T01:33:21.165Z,69.56
2023-03-28T01:36:51.703Z,69.78
2023-03-28T01:39:37.860Z,69.65
2023-03-28T01:42:20.480Z,68.13
2023-03-28T01:45:01.193Z,67.80
2023-03-28T01:47:38.431Z,68.38
2023-03-28T01:50:18.209Z,68.87
2023-03-28T01:52:57.966Z,68.49
2023-03-28T01:55:42.081Z,68.70
2023-03-28T01:58:22.026Z,68.96
2023-03-28T02:00:57.123Z,67.96
2023-03-28T02:03:32.922Z,68.86
2023-03-28T02:06:07.177Z,69.83
2023-03-28T02:08:40.262Z,69.83
2023-03-28T02:11:11.407Z,70.35
2023-03-28T02:13:46.850Z,70.13
2023-03-28T02:16:18.902Z,71.28
2023-03-28T02:18:56.042Z,71.46
2023-03-28T02:21:30.948Z,71.73
2023-03-28T02:23:59.232Z,71.85
2023-03-28T02:26:29.508Z,71.42
2023-03-28T02:29:00.629Z,71.05
2023-03-28T02:31:29.001Z,71.21
2023-03-28T02:33:58.779Z,71.08
2023-03-28T02:36:39.913Z,70.54
2023-03-28T02:39:46.536Z,70.04
2023-03-28T02:42:56.958Z,69.79
2023-03-28T02:46:08.434Z,69.57
2023-03-28T02:48:56.274Z,70.36
2023-03-28T02:51:34.926Z,70.05
2023-03-28T02:54:24.810Z,69.82
2023-03-28T02:57:04.043Z,70.24
2023-03-28T02:59:42.963Z,71.12
2023-03-28T03:02:17.895Z,70.82
2023-03-28T03:04:46.750Z,71.49
2023-03-28T03:07:17.937Z,71.71
2023-03-28T03:09:46.671Z,71.39
2023-03-28T03:12:15.268Z,71.89
2023-03-28T03:14:44.725Z,71.81
2023-03-28T03:17:12.879Z,72.11
2023-03-28T03:19:43.253Z,72.65
2023-03-28T03:22:12.341Z,72.49
2023-03-28T03:24:50.872Z,72.29
2023-03-28T03:27:20.165Z,72.37
2023-03-28T03:29:49.642Z,73.06
2023-03-28T03:32:17.746Z,73.29
2023-03-28T03:34:45.848Z,72.87
2023-03-28T03:37:14.275Z,72.65
2023-03-28T03:39:42.360Z,73.12
2023-03-28T03:42:10.808Z,73.25
2023-03-28T03:44:39.006Z,72.77
2023-03-28T03:47:08.478Z,72.94
2023-03-28T03:49:36.601Z,72.50
2023-03-28T03:52:05.080Z,72.69
2023-03-28T03:54:33.999Z,72.66
2023-03-28T03:57:03.322Z,72.66
2023-03-28T03:59:31.719Z,72.78
2023-03-28T04:02:00.315Z,72.95
2023-03-28T04:04:30.350Z,73.01
2023-03-28T04:06:59.143Z,73.17
2023-03-28T04:09:27.911Z,73.43
2023-03-28T04:11:56.617Z,73.20
2023-03-28T04:14:25.198Z,73.40
2023-03-28T04:16:53.791Z,73.29
2023-03-28T04:19:24.218Z,72.27
2023-03-28T04:21:57.427Z,71.64
2023-03-28T04:24:25.757Z,72.27
2023-03-28T04:26:56.074Z,72.78
2023-03-28T04:29:30.600Z,72.73
2023-03-28T04:31:59.060Z,71.90
2023-03-28T04:34:30.096Z,71.32
2023-03-28T04:37:02.220Z,71.66
2023-03-28T04:39:31.840Z,72.62
2023-03-28T04:42:02.167Z,72.61
2023-03-28T04:44:30.807Z,72.75
2023-03-28T04:46:59.463Z,71.76
2023-03-28T04:49:27.799Z,71.33
2023-03-28T04:51:55.971Z,70.00
2023-03-28T04:54:25.455Z,70.57
2023-03-28T04:56:53.689Z,70.60
2023-03-28T04:59:21.939Z,70.98
2023-03-28T05:01:50.248Z,70.77
2023-03-28T05:04:19.971Z,71.30
2023-03-28T05:06:50.095Z,71.47
2023-03-28T05:09:18.596Z,71.94
2023-03-28T05:11:48.055Z,71.67
2023-03-28T05:14:16.367Z,72.13
2023-03-28T05:16:44.553Z,72.87
2023-03-28T05:19:12.799Z,73.31
2023-03-28T05:21:41.721Z,73.94
2023-03-28T05:24:11.507Z,73.62
2023-03-28T05:26:39.632Z,74.08
2023-03-28T05:29:09.138Z,74.08
2023-03-28T05:31:37.331Z,73.52
2023-03-28T05:34:05.706Z,73.29
2023-03-28T05:36:33.837Z,72.84
2023-03-28T05:39:01.979Z,73.14
2023-03-28T05:41:30.296Z,73.31
2023-03-28T05:43:58.463Z,72.16
2023-03-28T05:46:27.950Z,70.55
2023-03-28T05:48:56.095Z,70.09
2023-03-28T05:51:24.227Z,70.53
2023-03-28T05:53:52.395Z,71.06
2023-03-28T05:56:20.997Z,71.12
2023-03-28T05:58:49.317Z,71.83
2023-03-28T06:01:18.086Z,70.99
2023-03-28T06:03:47.710Z,71.37
2023-03-28T06:06:17.985Z,71.49
2023-03-28T06:08:46.850Z,71.55
2023-03-28T06:11:15.683Z,71.35
2023-03-28T06:13:43.835Z,70.53
2023-03-28T06:16:12.057Z,70.52
2023-03-28T06:18:40.172Z,71.23
2023-03-28T06:21:09.800Z,70.18
2023-03-28T06:23:37.905Z,69.59
2023-03-28T06:26:06.539Z,67.86
2023-03-28T06:28:34.670Z,68.09
2023-03-28T06:31:03.253Z,68.43
2023-03-28T06:33:31.666Z,68.89
2023-03-28T06:35:59.836Z,69.49
2023-03-28T06:38:29.910Z,69.97
2023-03-28T06:40:58.300Z,70.53
2023-03-28T06:43:26.916Z,69.33
2023-03-28T06:45:55.223Z,68.39
2023-03-28T06:48:23.432Z,68.24
2023-03-28T06:50:51.600Z,68.54
2023-03-28T06:53:20.648Z,67.51
2023-03-28T06:55:51.392Z,65.75
2023-03-28T06:58:19.899Z,65.09
2023-03-28T07:00:48.446Z,65.25
2023-03-28T07:03:16.655Z,63.99
2023-03-28T07:05:45.294Z,64.29
2023-03-28T07:08:15.235Z,65.05
2023-03-28T07:10:44.354Z,63.82
2023-03-28T07:13:14.677Z,64.08
2023-03-28T07:15:43.278Z,63.00
2023-03-28T07:18:11.396Z,62.42
2023-03-28T07:20:40.526Z,62.40
2023-03-28T07:23:08.653Z,61.59
2023-03-28T07:25:36.790Z,61.11
2023-03-28T07:28:05.038Z,59.96
2023-03-28T07:30:34.483Z,60.17
2023-03-28T07:33:12.970Z,60.12
2023-03-28T07:35:43.059Z,59.64
2023-03-28T07:38:11.237Z,60.35
2023-03-28T07:40:39.420Z,58.22
2023-03-28T07:43:07.533Z,57.75
2023-03-28T07:45:37.208Z,56.84
2023-03-28T07:48:05.797Z,54.87
2023-03-28T07:50:34.784Z,55.69
2023-03-28T07:53:02.945Z,56.05
2023-03-28T07:55:32.648Z,55.98
2023-03-28T07:58:03.511Z,55.45
2023-03-28T08:00:32.105Z,56.10
2023-03-28T08:03:01.709Z,55.20
2023-03-28T08:05:30.009Z,52.59
2023-03-28T08:07:59.384Z,54.05
2023-03-28T08:10:27.696Z,53.56
2023-03-28T08:12:55.926Z,54.11
2023-03-28T08:15:24.044Z,53.41
2023-03-28T08:17:52.210Z,52.75
2023-03-28T08:20:21.827Z,52.02
2023-03-28T08:22:50.660Z,52.33
2023-03-28T08:25:19.569Z,52.32
2023-03-28T08:27:47.616Z,51.34
2023-03-28T08:30:15.892Z,49.14
2023-03-28T08:32:45.106Z,49.05
2023-03-28T08:35:15.600Z,47.66
2023-03-28T08:37:45.010Z,48.25
2023-03-28T08:40:18.747Z,47.93
2023-03-28T08:43:17.111Z,47.29
2023-03-28T08:45:53.162Z,48.12
2023-03-28T08:48:27.957Z,49.02
2023-03-28T08:51:05.886Z,48.78
2023-03-28T08:53:43.765Z,48.79
2023-03-28T08:56:16.501Z,48.92
2023-03-28T08:58:54.840Z,49.10
2023-03-28T09:01:23.560Z,48.55
2023-03-28T09:03:51.885Z,48.34
2023-03-28T09:06:30.815Z,47.79
2023-03-28T09:09:34.105Z,45.70
2023-03-28T09:12:27.334Z,43.76
2023-03-28T09:15:26.425Z,44.33
2023-03-28T09:18:31.612Z,44.67
2023-03-28T09:21:08.581Z,44.55
2023-03-28T09:24:06.185Z,44.02
2023-03-28T09:26:41.776Z,44.42
2023-03-28T09:29:18.836Z,44.71
2023-03-28T09:31:50.590Z,45.54
2023-03-28T09:34:27.313Z,46.15
2023-03-28T09:37:03.561Z,46.00
2023-03-28T09:39:38.260Z,44.54
2023-03-28T09:42:16.412Z,44.45
2023-03-28T09:44:58.836Z,45.51
2023-03-28T09:47:27.329Z,45.38
2023-03-28T09:50:05.683Z,45.74
2023-03-28T09:52:41.508Z,44.98
2023-03-28T09:55:19.937Z,44.67
2023-03-28T09:58:08.300Z,42.80
2023-03-28T10:00:41.013Z,42.61
2023-03-28T10:03:23.204Z,42.39
2023-03-28T10:05:52.685Z,42.12
2023-03-28T10:08:26.878Z,42.19
2023-03-28T10:11:02.705Z,42.48
2023-03-28T10:13:38.676Z,41.92
2023-03-28T10:16:08.834Z,42.39
2023-03-28T10:18:40.436Z,43.54
2023-03-28T10:21:15.748Z,43.61
2023-03-28T10:23:51.596Z,42.01
2023-03-28T10:26:27.441Z,42.19
2023-03-28T10:29:04.355Z,42.33
2023-03-28T10:31:34.484Z,42.65
2023-03-28T10:34:03.598Z,42.95
2023-03-28T10:36:37.425Z,44.07
2023-03-28T10:39:24.577Z,44.73
2023-03-28T10:41:58.001Z,45.27
2023-03-28T10:44:32.718Z,46.28
2023-03-28T10:47:03.956Z,45.31
2023-03-28T10:49:43.731Z,45.50
2023-03-28T10:52:26.278Z,44.52
2023-03-28T10:55:11.268Z,42.78
2023-03-28T10:57:53.826Z,41.56
2023-03-28T11:00:32.053Z,41.19
2023-03-28T11:03:27.057Z,40.66
2023-03-28T11:06:10.240Z,41.63
2023-03-28T11:08:54.073Z,42.11
2023-03-28T11:11:42.573Z,43.30
2023-03-28T11:14:28.471Z,43.71
2023-03-28T11:17:09.174Z,43.83
2023-03-28T11:20:17.363Z,43.37
2023-03-28T11:23:05.562Z,42.81
2023-03-28T11:25:51.637Z,42.83
2023-03-28T11:28:36.899Z,40.45
2023-03-28T11:31:06.492Z,40.96
2023-03-28T11:33:49.248Z,41.12
2023-03-28T11:36:29.471Z,42.74
2023-03-28T11:39:05.487Z,42.71
2023-03-28T11:41:38.036Z,43.09
2023-03-28T11:44:18.259Z,44.04
2023-03-28T11:46:54.526Z,43.36
2023-03-28T11:49:31.063Z,41.04
2023-03-28T11:52:07.108Z,40.47
2023-03-28T11:54:42.663Z,40.64
2023-03-28T11:57:22.921Z,41.79
2023-03-28T11:59:58.153Z,41.68
2023-03-28T12:02:43.305Z,41.27
2023-03-28T12:05:25.926Z,41.25
2023-03-28T12:08:04.268Z,41.78
2023-03-28T12:10:36.323Z,42.04
2023-03-28T12:13:12.196Z,41.87
2023-03-28T12:15:49.891Z,41.64
2023-03-28T12:18:30.542Z,41.17
2023-03-28T12:21:10.432Z,40.93
2023-03-28T12:23:48.363Z,41.21
2023-03-28T12:26:30.286Z,43.96
2023-03-28T12:29:08.499Z,45.47
2023-03-28T12:31:47.472Z,46.86
2023-03-28T12:34:30.316Z,47.79
2023-03-28T12:37:11.980Z,48.28
2023-03-28T12:39:52.342Z,48.10
2023-03-28T12:42:24.419Z,48.86
2023-03-28T12:45:00.881Z,48.10
2023-03-28T12:47:34.358Z,47.98
2023-03-28T12:50:07.022Z,49.17
2023-03-28T12:52:38.933Z,51.36
2023-03-28T12:55:31.381Z,56.51
2023-03-28T12:58:25.604Z,59.88
2023-03-28T13:01:23.098Z,60.47
2023-03-28T13:04:03.806Z,59.85
2023-03-28T13:06:43.666Z,59.43
2023-03-28T13:10:00.716Z,58.97
2023-03-28T13:12:47.955Z,58.10
2023-03-28T13:15:32.467Z,57.55
2023-03-28T13:18:31.514Z,56.04
2023-03-28T13:21:04.089Z,54.41
2023-03-28T13:23:37.317Z,52.86
2023-03-28T13:26:08.093Z,50.68
2023-03-28T13:28:46.082Z,50.71
2023-03-28T13:31:23.302Z,49.38
2023-03-28T13:33:58.398Z,48.29
2023-03-28T13:36:29.400Z,47.55
2023-03-28T13:39:21.349Z,46.89
2023-03-28T13:42:00.915Z,47.69
2023-03-28T13:44:51.898Z,48.55
2023-03-28T13:47:31.850Z,48.76
2023-03-28T13:50:09.418Z,49.29
2023-03-28T13:52:39.268Z,49.79
2023-03-28T13:55:21.936Z,50.33
2023-03-28T13:57:52.684Z,51.54
2023-03-28T14:00:25.809Z,51.23
2023-03-28T14:03:03.321Z,51.53
2023-03-28T14:05:35.347Z,51.75
2023-03-28T14:08:22.302Z,52.13
2023-03-28T14:10:52.203Z,52.47
2023-03-28T14:13:27.983Z,50.43
2023-03-28T14:15:56.948Z,50.26
2023-03-28T14:18:32.889Z,51.07
2023-03-28T14:21:01.980Z,51.50
2023-03-28T14:23:33.886Z,49.93
2023-03-28T14:26:05.772Z,49.03
2023-03-28T14:28:42.017Z,48.46
2023-03-28T14:31:15.007Z,48.06
2023-03-28T14:33:47.634Z,47.01
2023-03-28T14:36:17.274Z,46.16
2023-03-28T14:38:45.363Z,46.00
2023-03-28T14:41:21.379Z,46.68
2023-03-28T14:43:55.843Z,45.85
2023-03-28T14:46:28.706Z,45.33
2023-03-28T14:49:02.334Z,46.10
2023-03-28T14:51:40.924Z,46.03
2023-03-28T14:54:15.456Z,46.08
2023-03-28T14:56:45.845Z,46.29
2023-03-28T14:59:20.164Z,44.60
2023-03-28T15:01:51.790Z,43.98
2023-03-28T15:04:23.479Z,44.33
2023-03-28T15:06:56.419Z,44.39
2023-03-28T15:09:31.347Z,45.05
2023-03-28T15:12:06.617Z,45.33
2023-03-28T15:14:43.073Z,46.05
2023-03-28T15:17:20.244Z,47.33
2023-03-28T15:19:55.909Z,46.94
2023-03-28T15:22:29.860Z,47.03
2023-03-28T15:24:59.300Z,46.41
2023-03-28T15:27:34.122Z,47.00
2023-03-28T15:30:14.769Z,46.78
2023-03-28T15:32:42.961Z,46.03
2023-03-28T15:35:28.337Z,46.16
2023-03-28T15:38:06.375Z,46.48
2023-03-28T15:40:41.636Z,46.80
2023-03-28T15:43:30.335Z,47.16
2023-03-28T15:46:02.474Z,47.93
2023-03-28T15:48:34.991Z,47.45
2023-03-28T15:51:06.970Z,48.40
2023-03-28T15:53:38.480Z,48.24
2023-03-28T15:56:14.919Z,47.91
2023-03-28T15:58:46.656Z,48.55
2023-03-28T16:01:34.645Z,47.46
2023-03-28T16:04:32.857Z,46.67
2023-03-28T16:07:13.426Z,46.07
2023-03-28T16:09:43.113Z,46.54
2023-03-28T16:12:15.498Z,46.62
2023-03-28T16:14:48.754Z,45.95
2023-03-28T16:17:18.247Z,47.24
2023-03-28T16:19:48.693Z,47.75
2023-03-28T16:22:16.691Z,47.60
2023-03-28T16:24:45.209Z,47.22
2023-03-28T16:27:13.267Z,48.72
2023-03-28T16:29:41.627Z,47.91
2023-03-28T16:32:13.401Z,48.71
2023-03-28T16:34:44.480Z,48.66
2023-03-28T16:37:12.507Z,48.81
2023-03-28T16:39:41.338Z,49.25
2023-03-28T16:42:09.543Z,49.16
2023-03-28T16:44:37.713Z,49.34
2023-03-28T16:47:06.083Z,49.40
2023-03-28T16:49:34.121Z,48.80
2023-03-28T16:52:04.769Z,48.36
2023-03-28T16:54:32.780Z,49.31
2023-03-28T16:57:01.006Z,49.95
2023-03-28T16:59:29.163Z,50.78
2023-03-28T17:01:57.545Z,51.28
2023-03-28T17:04:27.936Z,51.99
2023-03-28T17:06:57.476Z,51.62
2023-03-28T17:09:27.327Z,51.77
2023-03-28T17:11:55.458Z,52.85
2023-03-28T17:14:23.602Z,52.85
2023-03-28T17:16:51.809Z,53.33
2023-03-28T17:19:23.055Z,53.63
2023-03-28T17:21:51.492Z,54.59
2023-03-28T17:24:21.593Z,54.56
2023-03-28T17:26:51.274Z,55.26
2023-03-28T17:29:19.333Z,55.68
2023-03-28T17:31:47.512Z,56.20
2023-03-28T17:34:16.049Z,56.59
2023-03-28T17:36:44.362Z,57.01
2023-03-28T17:39:12.938Z,56.68
2023-03-28T17:41:41.711Z,56.46
2023-03-28T17:44:11.546Z,57.15
2023-03-28T17:46:39.757Z,57.53
2023-03-28T17:49:08.081Z,57.48
2023-03-28T17:51:36.312Z,57.67
2023-03-28T17:54:06.764Z,57.99
2023-03-28T17:56:35.128Z,58.34
2023-03-28T17:59:03.959Z,58.62
2023-03-28T18:01:33.743Z,59.04
2023-03-28T18:04:02.269Z,59.35
2023-03-28T18:06:30.834Z,60.21
2023-03-28T18:08:59.040Z,60.79
2023-03-28T18:11:27.215Z,61.22
2023-03-28T18:13:58.820Z,62.13
2023-03-28T18:16:27.757Z,62.44
2023-03-28T18:18:57.432Z,62.30
2023-03-28T18:21:26.052Z,62.68
2023-03-28T18:23:54.428Z,62.78
2023-03-28T18:26:22.592Z,63.10
2023-03-28T18:28:50.758Z,63.17
2023-03-28T18:31:27.630Z,63.18
2023-03-28T18:33:58.005Z,63.14
2023-03-28T18:36:29.057Z,63.59
2023-03-28T18:38:57.577Z,63.69
2023-03-28T18:41:26.402Z,63.37
2023-03-28T18:43:54.523Z,63.12
2023-03-28T18:46:25.092Z,62.49
2023-03-28T18:48:54.648Z,62.78
2023-03-28T18:51:24.741Z,63.05
2023-03-28T18:53:53.878Z,62.00
2023-03-28T18:56:22.765Z,62.11
2023-03-28T18:58:51.266Z,61.11
2023-03-28T19:01:20.527Z,61.30
2023-03-28T19:03:49.856Z,61.46
2023-03-28T19:06:18.316Z,61.57
2023-03-28T19:08:48.510Z,61.35
2023-03-28T19:11:19.584Z,61.07
2023-03-28T19:13:47.895Z,61.48
2023-03-28T19:16:19.565Z,61.29
2023-03-28T19:18:48.561Z,61.56
2023-03-28T19:21:17.706Z,61.79
2023-03-28T19:23:48.828Z,61.74
2023-03-28T19:26:18.141Z,61.58
2023-03-28T19:28:47.264Z,61.03
2023-03-28T19:31:15.654Z,60.69
2023-03-28T19:33:44.738Z,61.41
2023-03-28T19:36:12.997Z,61.50
2023-03-28T19:38:41.610Z,62.05
2023-03-28T19:41:19.064Z,61.94
2023-03-28T19:43:48.688Z,62.04
2023-03-28T19:46:24.883Z,61.46
2023-03-28T19:48:56.504Z,61.34
2023-03-28T19:51:24.817Z,60.63
2023-03-28T19:53:53.434Z,61.15
2023-03-28T19:56:23.407Z,60.88
2023-03-28T19:58:52.081Z,60.90
2023-03-28T20:01:20.898Z,60.92
2023-03-28T20:03:52.868Z,61.10
2023-03-28T20:06:23.602Z,61.18
2023-03-28T20:08:52.203Z,61.32
2023-03-28T20:11:22.014Z,61.61
2023-03-28T20:13:50.277Z,61.90
2023-03-28T20:16:18.446Z,61.81
2023-03-28T20:18:46.618Z,61.64
2023-03-28T20:21:15.385Z,61.81
2023-03-28T20:23:43.504Z,61.79
2023-03-28T20:26:18.242Z,61.57
2023-03-28T20:28:50.564Z,61.62
2023-03-28T20:31:19.928Z,61.70
2023-03-28T20:33:48.018Z,61.40
2023-03-28T20:36:16.357Z,61.05
2023-03-28T20:38:44.440Z,61.57
2023-03-28T20:41:13.382Z,62.04
2023-03-28T20:43:47.000Z,62.37
2023-03-28T20:46:19.610Z,62.78
2023-03-28T20:48:52.879Z,62.47
2023-03-28T20:51:23.644Z,60.51
2023-03-28T20:53:56.947Z,60.23
2023-03-28T20:56:27.266Z,60.65
2023-03-28T20:58:58.148Z,59.77
2023-03-28T21:01:32.901Z,59.63
2023-03-28T21:04:02.196Z,60.04
2023-03-28T21:06:35.182Z,60.00
2023-03-28T21:09:07.879Z,60.42
2023-03-28T21:11:38.708Z,60.59
2023-03-28T21:14:09.150Z,61.15
2023-03-28T21:16:38.677Z,61.15
2023-03-28T21:19:07.719Z,61.57
2023-03-28T21:21:36.057Z,61.45
2023-03-28T21:24:07.188Z,61.35
2023-03-28T21:26:35.773Z,61.31
2023-03-28T21:29:04.632Z,61.08
2023-03-28T21:31:33.125Z,61.06
2023-03-28T21:34:02.722Z,60.62
2023-03-28T21:36:30.912Z,59.55
2023-03-28T21:38:59.041Z,58.30
2023-03-28T21:41:28.267Z,58.40
2023-03-28T21:43:56.846Z,57.80
2023-03-28T21:46:25.492Z,58.05
2023-03-28T21:48:53.955Z,58.37
2023-03-28T21:51:23.501Z,57.62
2023-03-28T21:53:52.179Z,57.79
2023-03-28T21:56:20.324Z,57.71
2023-03-28T21:58:48.512Z,57.55
2023-03-28T22:01:18.480Z,57.67
2023-03-28T22:03:47.581Z,58.61
2023-03-28T22:06:18.283Z,58.58
2023-03-28T22:08:51.897Z,57.71
2023-03-28T22:11:27.340Z,57.54
2023-03-28T22:14:02.779Z,57.69
2023-03-28T22:16:33.544Z,58.06
2023-03-28T22:19:02.834Z,57.14
2023-03-28T22:21:31.438Z,57.83
2023-03-28T22:24:03.445Z,57.74
2023-03-28T22:26:32.042Z,58.04
2023-03-28T22:29:00.890Z,58.07
2023-03-28T22:31:29.588Z,57.74
2023-03-28T22:33:57.847Z,57.57
2023-03-28T22:36:26.216Z,58.02
2023-03-28T22:38:55.343Z,57.96
2023-03-28T22:41:24.928Z,58.11
2023-03-28T22:43:53.065Z,58.16
2023-03-28T22:46:22.080Z,57.28
2023-03-28T22:48:54.237Z,57.82
2023-03-28T22:51:25.200Z,57.83
2023-03-28T22:53:53.938Z,57.80
2023-03-28T22:56:23.321Z,58.29
2023-03-28T22:58:53.897Z,58.00
2023-03-28T23:01:25.903Z,58.05
2023-03-28T23:03:54.261Z,58.40
2023-03-28T23:06:22.459Z,58.18
2023-03-28T23:08:50.573Z,57.95
2023-03-28T23:11:18.691Z,58.11
2023-03-28T23:13:46.947Z,58.65
2023-03-28T23:16:16.507Z,58.92
2023-03-28T23:18:45.050Z,59.41
2023-03-28T23:21:13.453Z,58.75
2023-03-28T23:23:42.299Z,58.77
2023-03-28T23:26:10.671Z,59.10
2023-03-28T23:28:38.819Z,59.60
2023-03-28T23:31:07.759Z,59.38
2023-03-28T23:33:37.508Z,59.39
2023-03-28T23:36:07.649Z,59.76
2023-03-28T23:38:35.864Z,60.23
2023-03-28T23:41:04.207Z,60.52
2023-03-28T23:43:32.610Z,60.86
2023-03-28T23:46:04.038Z,60.28
2023-03-28T23:48:32.769Z,60.48
2023-03-28T23:51:02.447Z,60.26
2023-03-28T23:53:30.696Z,59.30
2023-03-28T23:55:58.838Z,60.28
2023-03-28T23:58:26.984Z,60.71
